KGPM

Grand Prairie Municipal Airport

Grand Prairie, Texas, USA
METAR KGPM 171750Z 02010G15KT 10SM SCT070 12/06 A3037
Observed Flight Rules
Oct-17 @ 17:50 UTC (30 minutes ago) Visual Flight Rules
Wind Visibility Clouds
20° at 10 knots
 Gusting to 15 knots
10 miles
  • Scattered at 7,000' AGL
Temperatures Readings
Current 12°C / 54°F
Dewpoint 6°C / 43°F
Humidity 67%
Altimeter 30.37" Hg
Pressure 1028 hPa
Elevation 180
METAR KGPM 171750Z 02010G15KT 10SM SCT070 12/06 A3037
Observed Flight Rules
Oct-17 @ 17:50 UTC
(30 minutes ago)
VFR
Wind Visibility
20° at 10 knots
 Gusting to 15 knots
10 miles
Clouds
  • Scattered at 7,000' AGL
Temperature Dewpoint
12°C / 54°F 6°C / 43°F
Humidity Altimeter Pressure
67% 30.37" Hg 1028 hPa